createdAt,value
2019-03-19T00:02:27.818Z,6.93
2019-03-19T00:04:59.106Z,7.50
2019-03-19T00:07:30.432Z,7.07
2019-03-19T00:10:01.518Z,6.90
2019-03-19T00:12:32.725Z,7.20
2019-03-19T00:15:03.504Z,6.40
2019-03-19T00:17:34.484Z,5.47
2019-03-19T00:20:06.381Z,5.20
2019-03-19T00:22:37.639Z,5.70
2019-03-19T00:25:10.396Z,6.20
2019-03-19T00:27:41.486Z,6.20
2019-03-19T00:30:12.800Z,6.60
2019-03-19T00:32:43.967Z,5.90
2019-03-19T00:35:16.114Z,6.00
2019-03-19T00:37:47.330Z,6.00
2019-03-19T00:40:19.644Z,6.77
2019-03-19T00:42:50.864Z,6.43
2019-03-19T00:45:21.957Z,6.33
2019-03-19T00:47:53.155Z,5.83
2019-03-19T00:50:24.323Z,6.60
2019-03-19T00:52:55.491Z,6.97
2019-03-19T00:55:26.687Z,6.53
2019-03-19T00:57:58.259Z,6.33
2019-03-19T01:00:29.615Z,6.93
2019-03-19T01:03:00.856Z,7.33
2019-03-19T01:05:32.109Z,6.50
2019-03-19T01:08:03.354Z,7.13
2019-03-19T01:10:34.419Z,7.07
2019-03-19T01:13:05.596Z,6.90
2019-03-19T01:15:36.909Z,7.33
2019-03-19T01:18:08.305Z,8.27
2019-03-19T01:20:39.380Z,7.90
2019-03-19T01:23:10.529Z,7.37
2019-03-19T01:25:54.717Z,7.53
2019-03-19T01:28:14.588Z,7.97
2019-03-19T01:30:45.699Z,7.20
2019-03-19T01:33:16.800Z,7.70
2019-03-19T01:35:48.037Z,7.60
2019-03-19T01:38:19.183Z,7.07
2019-03-19T01:40:50.411Z,7.05
2019-03-19T01:43:21.586Z,7.40
2019-03-19T01:45:52.681Z,7.50
2019-03-19T01:48:25.004Z,6.90
2019-03-19T01:50:56.167Z,7.27
2019-03-19T01:53:27.243Z,7.60
2019-03-19T01:56:05.128Z,7.80
2019-03-19T01:58:31.667Z,6.93
2019-03-19T02:01:02.804Z,7.93
2019-03-19T02:03:33.881Z,7.73
2019-03-19T02:06:05.063Z,7.80
2019-03-19T02:08:39.412Z,7.60
2019-03-19T02:11:10.455Z,7.87
2019-03-19T02:13:41.621Z,8.43
2019-03-19T02:16:13.081Z,8.60
2019-03-19T02:18:44.252Z,8.27
2019-03-19T02:21:16.394Z,8.78
2019-03-19T02:23:47.484Z,8.40
2019-03-19T02:26:18.657Z,8.40
2019-03-19T02:28:49.755Z,8.63
2019-03-19T02:31:20.955Z,8.90
2019-03-19T02:33:52.006Z,8.80
2019-03-19T02:36:23.068Z,8.37
2019-03-19T02:38:54.188Z,10.77
2019-03-19T02:41:25.230Z,11.67
2019-03-19T02:43:56.320Z,11.12
2019-03-19T02:46:27.440Z,11.30
2019-03-19T02:48:58.563Z,10.30
2019-03-19T02:51:29.631Z,10.00
2019-03-19T02:54:00.845Z,10.43
2019-03-19T02:56:33.575Z,11.97
2019-03-19T02:59:05.927Z,11.87
2019-03-19T03:01:37.066Z,14.85
2019-03-19T03:04:08.206Z,13.63
2019-03-19T03:06:39.280Z,13.53
2019-03-19T03:09:10.387Z,13.80
2019-03-19T03:11:41.506Z,13.83
2019-03-19T03:14:12.785Z,13.90
2019-03-19T03:16:44.106Z,13.53
2019-03-19T03:19:15.167Z,14.00
2019-03-19T03:21:46.281Z,14.70
2019-03-19T03:24:17.320Z,15.50
2019-03-19T03:26:48.933Z,13.05
2019-03-19T03:29:20.278Z,15.85
2019-03-19T03:31:51.345Z,14.05
2019-03-19T03:34:22.681Z,15.45
2019-03-19T03:36:53.914Z,14.95
2019-03-19T03:39:25.041Z,14.87
2019-03-19T03:41:56.107Z,14.38
2019-03-19T03:44:27.251Z,15.20
2019-03-19T03:46:58.315Z,13.67
2019-03-19T03:49:29.389Z,14.38
2019-03-19T03:52:00.590Z,13.75
2019-03-19T03:54:31.700Z,16.10
2019-03-19T03:57:02.929Z,14.90
2019-03-19T03:59:34.439Z,15.87
2019-03-19T04:02:05.568Z,15.23
2019-03-19T04:04:36.787Z,15.20
2019-03-19T04:07:07.907Z,15.13
2019-03-19T04:09:39.071Z,16.47
2019-03-19T04:12:10.300Z,16.43
2019-03-19T04:14:41.452Z,15.60
2019-03-19T04:17:12.961Z,14.68
2019-03-19T04:19:44.101Z,17.02
2019-03-19T04:22:16.082Z,15.13
2019-03-19T04:24:47.339Z,15.80
2019-03-19T04:27:18.384Z,14.85
2019-03-19T04:29:49.454Z,15.23
2019-03-19T04:32:20.609Z,15.77
2019-03-19T04:34:51.688Z,14.97
2019-03-19T04:37:22.908Z,19.67
2019-03-19T04:39:54.203Z,14.20
2019-03-19T04:42:25.320Z,15.83
2019-03-19T04:44:56.485Z,14.40
2019-03-19T04:47:27.677Z,15.50
2019-03-19T04:49:58.798Z,15.27
2019-03-19T04:52:29.876Z,17.20
2019-03-19T04:55:01.385Z,16.70
2019-03-19T04:57:32.507Z,16.00
2019-03-19T05:00:03.846Z,16.17
2019-03-19T05:02:35.201Z,15.20
2019-03-19T05:05:07.167Z,18.70
2019-03-19T05:07:38.312Z,15.20
2019-03-19T05:10:11.145Z,14.10
2019-03-19T05:12:42.394Z,15.78
2019-03-19T05:15:13.762Z,14.87
2019-03-19T05:17:45.133Z,14.78
2019-03-19T05:20:16.209Z,14.70
2019-03-19T05:22:47.293Z,13.60
2019-03-19T05:25:18.440Z,15.13
2019-03-19T05:27:49.547Z,16.55
2019-03-19T05:30:20.798Z,15.30
2019-03-19T05:32:51.961Z,15.60
2019-03-19T05:35:23.089Z,14.75
2019-03-19T05:37:54.178Z,16.12
2019-03-19T05:40:25.298Z,14.37
2019-03-19T05:42:56.423Z,14.97
2019-03-19T05:45:27.523Z,14.00
2019-03-19T05:47:58.728Z,13.70
2019-03-19T05:50:29.835Z,15.68
2019-03-19T05:53:01.082Z,14.40
2019-03-19T05:55:32.151Z,15.65
2019-03-19T05:58:03.247Z,13.75
2019-03-19T06:00:34.673Z,15.47
2019-03-19T06:03:06.032Z,16.30
2019-03-19T06:05:37.161Z,16.50
2019-03-19T06:08:08.361Z,17.50
2019-03-19T06:10:39.415Z,16.07
2019-03-19T06:13:10.653Z,17.05
2019-03-19T06:15:41.808Z,15.17
2019-03-19T06:18:13.019Z,14.57
2019-03-19T06:20:44.138Z,14.60
2019-03-19T06:23:15.327Z,16.85
2019-03-19T06:25:47.657Z,13.97
2019-03-19T06:28:18.802Z,14.30
2019-03-19T06:30:49.943Z,12.70
2019-03-19T06:33:21.099Z,14.80
2019-03-19T06:35:52.299Z,14.00
2019-03-19T06:38:23.572Z,14.43
2019-03-19T06:40:54.719Z,15.27
2019-03-19T06:43:25.865Z,13.73
2019-03-19T06:45:57.051Z,14.20
2019-03-19T06:48:28.151Z,13.87
2019-03-19T06:50:59.212Z,13.00
2019-03-19T06:53:30.437Z,13.40
2019-03-19T06:56:01.623Z,15.10
2019-03-19T06:58:32.677Z,14.00
2019-03-19T07:01:03.826Z,13.10
2019-03-19T07:03:34.880Z,13.60
2019-03-19T07:06:06.090Z,14.30
2019-03-19T07:08:37.229Z,15.43
2019-03-19T07:11:08.333Z,15.60
2019-03-19T07:13:39.415Z,16.97
2019-03-19T07:16:10.632Z,16.13
2019-03-19T07:18:41.965Z,14.83
2019-03-19T07:21:13.141Z,14.50
2019-03-19T07:23:44.313Z,14.90
2019-03-19T07:26:15.549Z,15.23
2019-03-19T07:28:46.627Z,16.30
2019-03-19T07:31:17.681Z,15.53
2019-03-19T07:33:49.047Z,14.57
2019-03-19T07:36:20.266Z,15.93
2019-03-19T07:38:51.381Z,15.43
2019-03-19T07:41:22.567Z,13.70
2019-03-19T07:44:05.153Z,19.20
2019-03-19T07:46:36.446Z,14.10
2019-03-19T07:49:07.643Z,15.60
2019-03-19T07:51:38.765Z,15.10
2019-03-19T07:54:09.884Z,17.43
2019-03-19T07:56:41.069Z,14.63
2019-03-19T07:59:12.229Z,15.70
2019-03-19T08:01:43.367Z,15.63
2019-03-19T08:04:15.555Z,14.30
2019-03-19T08:06:46.693Z,14.57
2019-03-19T08:09:17.899Z,15.00
2019-03-19T08:11:49.031Z,14.47
2019-03-19T08:14:20.237Z,15.10
2019-03-19T08:16:53.206Z,14.80
2019-03-19T08:19:24.553Z,15.33
2019-03-19T08:21:55.718Z,15.63
2019-03-19T08:24:26.869Z,15.70
2019-03-19T08:26:58.007Z,15.03
2019-03-19T08:29:29.260Z,17.43
2019-03-19T08:32:00.305Z,15.07
2019-03-19T08:34:31.403Z,14.70
2019-03-19T08:37:02.699Z,15.33
2019-03-19T08:39:33.903Z,15.10
2019-03-19T08:42:05.045Z,13.93
2019-03-19T08:44:36.149Z,14.73
2019-03-19T08:47:07.341Z,14.73
2019-03-19T08:49:38.415Z,14.20
2019-03-19T08:52:09.537Z,15.63
2019-03-19T08:54:40.977Z,17.27
2019-03-19T08:57:12.022Z,14.33
2019-03-19T08:59:43.127Z,14.97
2019-03-19T09:02:14.310Z,15.27
2019-03-19T12:29:51.947Z,3.87
2019-03-19T12:32:23.003Z,2.93
2019-03-19T12:34:54.165Z,3.10
2019-03-19T12:37:45.148Z,3.20
2019-03-19T12:40:16.265Z,2.50
2019-03-19T12:42:47.331Z,2.73
2019-03-19T12:45:18.605Z,3.20
2019-03-19T12:47:49.703Z,2.70
2019-03-19T12:50:20.863Z,2.60
2019-03-19T12:52:51.967Z,2.70
2019-03-19T12:55:23.032Z,2.70
2019-03-19T12:57:54.133Z,2.67
2019-03-19T13:00:33.503Z,2.77
2019-03-19T13:02:58.035Z,2.83
2019-03-19T13:05:29.384Z,3.07
2019-03-19T13:08:00.977Z,2.50
2019-03-19T13:10:32.129Z,2.70
2019-03-19T13:13:03.338Z,3.07
2019-03-19T13:15:35.412Z,2.73
2019-03-19T13:18:06.564Z,2.13
2019-03-19T13:20:37.634Z,2.27
2019-03-19T13:23:08.685Z,2.00
2019-03-19T13:25:39.737Z,2.30
2019-03-19T13:28:11.196Z,2.40
2019-03-19T13:30:45.399Z,2.27
2019-03-19T13:33:15.560Z,2.77
2019-03-19T13:35:46.661Z,2.50
2019-03-19T13:38:17.821Z,2.70
2019-03-19T13:40:48.960Z,2.77
2019-03-19T13:43:20.273Z,2.97
2019-03-19T13:45:51.421Z,2.57
2019-03-19T13:48:22.679Z,2.10
2019-03-19T13:50:53.772Z,2.73
2019-03-19T13:53:24.883Z,3.10
2019-03-19T13:55:56.005Z,3.10
2019-03-19T13:58:27.359Z,2.97
2019-03-19T14:00:58.643Z,3.10
2019-03-19T14:03:29.831Z,3.27
2019-03-19T14:06:00.975Z,3.00
2019-03-19T14:08:32.279Z,3.00
2019-03-19T14:11:03.399Z,3.60
2019-03-19T14:13:46.165Z,2.57
2019-03-19T14:16:16.627Z,2.63
2019-03-19T14:18:47.605Z,11.77
2019-03-19T14:21:18.676Z,2.90
2019-03-19T14:23:49.995Z,3.60
2019-03-19T14:26:21.579Z,2.87
2019-03-19T14:28:52.921Z,3.00
2019-03-19T14:31:24.156Z,2.90
2019-03-19T14:33:55.251Z,2.70
2019-03-19T14:36:26.347Z,3.00
2019-03-19T14:38:57.576Z,3.07
2019-03-19T14:41:28.794Z,2.87
2019-03-19T14:43:59.965Z,3.00
2019-03-19T14:46:50.217Z,2.87
2019-03-19T14:49:21.795Z,3.17
2019-03-19T14:51:53.013Z,2.80
2019-03-19T14:54:24.193Z,3.27
2019-03-19T14:56:55.371Z,2.93
2019-03-19T14:59:26.721Z,2.90
2019-03-19T15:01:57.958Z,2.73
2019-03-19T15:04:29.252Z,2.97
2019-03-19T15:07:00.477Z,3.17
2019-03-19T15:09:31.621Z,3.40
2019-03-19T15:12:02.732Z,3.00
2019-03-19T15:14:35.485Z,2.93
2019-03-19T15:17:06.597Z,3.20
2019-03-19T15:19:56.771Z,2.93
2019-03-19T15:22:34.187Z,2.80
2019-03-19T15:25:05.499Z,2.70
2019-03-19T15:27:36.961Z,3.33
2019-03-19T15:30:08.821Z,2.67
2019-03-19T15:32:40.240Z,3.33
2019-03-19T15:35:11.739Z,2.40
2019-03-19T15:37:43.188Z,3.27
2019-03-19T15:40:14.427Z,3.00
2019-03-19T15:42:45.648Z,3.00
2019-03-19T15:45:16.785Z,3.00
2019-03-19T15:47:47.946Z,2.60
2019-03-19T15:50:19.015Z,2.73
2019-03-19T15:52:50.153Z,2.73
2019-03-19T15:55:21.509Z,3.10
2019-03-19T15:57:52.653Z,3.00
2019-03-19T16:00:23.830Z,2.97
2019-03-19T16:02:54.919Z,3.00
2019-03-19T16:05:26.137Z,2.70
2019-03-19T16:07:57.332Z,2.67
2019-03-19T16:10:28.513Z,2.83
2019-03-19T16:12:59.626Z,2.40
2019-03-19T16:15:30.743Z,2.40
2019-03-19T16:18:01.983Z,2.40
2019-03-19T16:20:33.058Z,2.63
2019-03-19T16:23:04.364Z,3.50
2019-03-19T16:25:35.523Z,4.30
2019-03-19T16:28:06.718Z,2.40
2019-03-19T16:30:37.751Z,2.30
2019-03-19T16:33:09.241Z,2.00
2019-03-19T16:35:52.287Z,2.23
2019-03-19T16:38:23.403Z,1.93
2019-03-19T16:40:54.513Z,2.33
2019-03-19T16:46:07.281Z,3.00
2019-03-19T16:48:38.411Z,2.20
2019-03-19T16:51:09.685Z,2.20
2019-03-19T16:53:41.014Z,2.50
2019-03-19T16:56:12.119Z,2.47
2019-03-19T16:58:43.305Z,2.10
2019-03-19T17:01:15.515Z,1.80
2019-03-19T17:03:47.805Z,2.03
2019-03-19T17:06:18.908Z,2.27
2019-03-19T17:09:01.280Z,2.10
2019-03-19T17:11:34.031Z,2.00
2019-03-19T17:14:05.279Z,2.20
2019-03-19T17:16:36.464Z,2.03
2019-03-19T17:19:07.685Z,2.23
2019-03-19T17:21:39.134Z,1.90
2019-03-19T17:24:11.172Z,2.20
2019-03-19T17:26:42.343Z,2.53
2019-03-19T17:29:13.393Z,2.07
2019-03-19T17:31:44.515Z,1.90
2019-03-19T17:34:16.049Z,2.00
2019-03-19T17:36:47.217Z,2.20
2019-03-19T17:39:18.439Z,1.70
2019-03-19T17:41:49.631Z,2.13
2019-03-19T17:44:20.749Z,2.23
2019-03-19T17:46:52.005Z,2.00
2019-03-19T17:49:23.147Z,2.20
2019-03-19T17:51:54.316Z,2.43
2019-03-19T17:54:25.440Z,2.33
2019-03-19T17:56:56.907Z,3.00
2019-03-19T17:59:28.067Z,2.37
2019-03-19T18:01:59.209Z,2.00
2019-03-19T18:04:30.403Z,2.90
2019-03-19T18:07:01.628Z,3.33
2019-03-19T18:09:32.713Z,2.90
2019-03-19T18:12:03.819Z,3.27
2019-03-19T18:14:34.834Z,2.60
2019-03-19T18:17:06.960Z,3.00
2019-03-19T18:19:38.113Z,3.40
2019-03-19T18:22:09.215Z,3.50
2019-03-19T18:24:40.327Z,3.50
2019-03-19T18:27:11.473Z,3.70
2019-03-19T18:29:42.813Z,2.80
2019-03-19T18:32:14.097Z,3.00
2019-03-19T18:34:45.464Z,2.93
2019-03-19T18:37:16.661Z,2.53
2019-03-19T18:39:47.772Z,3.10
2019-03-19T18:42:18.887Z,3.10
2019-03-19T18:44:49.983Z,2.90
2019-03-19T18:47:21.079Z,2.97
2019-03-19T18:49:52.225Z,3.27
2019-03-19T18:52:23.363Z,2.70
2019-03-19T18:54:54.477Z,2.80
2019-03-19T18:57:25.624Z,3.70
2019-03-19T18:59:56.727Z,3.83
2019-03-19T19:02:27.899Z,3.87
2019-03-19T19:04:58.939Z,3.00
2019-03-19T19:07:30.019Z,3.50
2019-03-19T19:10:01.090Z,3.53
2019-03-19T19:12:32.277Z,3.53
2019-03-19T19:15:05.262Z,4.50
2019-03-19T19:17:36.940Z,4.50
2019-03-19T19:20:09.331Z,4.90
2019-03-19T19:22:40.895Z,4.30
2019-03-19T19:25:13.525Z,4.33
2019-03-19T19:27:44.700Z,4.40
2019-03-19T19:30:17.433Z,3.83
2019-03-19T19:32:48.553Z,3.60
2019-03-19T19:35:19.818Z,3.20
2019-03-19T19:37:51.288Z,3.90
2019-03-19T19:40:22.370Z,3.33
2019-03-19T19:42:53.489Z,8.87
2019-03-19T19:45:24.586Z,7.07
2019-03-19T19:47:55.653Z,6.20
2019-03-19T19:50:26.833Z,5.90
2019-03-19T19:52:57.921Z,5.73
2019-03-19T19:55:28.989Z,4.30
2019-03-19T19:58:00.073Z,5.67
2019-03-19T20:00:31.149Z,5.57
2019-03-19T20:03:11.875Z,4.50
2019-03-19T20:05:34.980Z,3.70
2019-03-19T20:08:06.083Z,4.00
2019-03-19T20:10:37.261Z,3.97
2019-03-19T20:13:08.343Z,3.77
2019-03-19T20:15:39.463Z,4.00
2019-03-19T20:18:10.581Z,3.90
2019-03-19T20:20:41.711Z,3.30
2019-03-19T20:23:12.821Z,3.90
2019-03-19T20:25:43.904Z,3.60
2019-03-19T20:28:14.925Z,3.40
2019-03-19T20:30:46.158Z,3.40
2019-03-19T20:33:24.741Z,3.70
2019-03-19T20:35:50.212Z,3.07
2019-03-19T20:38:21.306Z,3.70
2019-03-19T20:40:52.437Z,3.13
2019-03-19T20:43:23.479Z,3.53
2019-03-19T20:45:54.539Z,4.53
2019-03-19T20:48:25.667Z,6.87
2019-03-19T20:50:57.404Z,7.30
2019-03-19T20:53:29.947Z,6.63
2019-03-19T20:56:02.311Z,7.47
2019-03-19T20:58:43.150Z,6.17
2019-03-19T21:01:08.394Z,6.00
2019-03-19T21:03:39.514Z,5.07
2019-03-19T21:06:10.599Z,6.07
2019-03-19T21:08:41.642Z,6.47
2019-03-19T21:11:12.700Z,6.17
2019-03-19T21:13:43.843Z,5.00
2019-03-19T21:16:14.891Z,5.50
2019-03-19T21:18:46.059Z,5.27
2019-03-19T21:21:17.105Z,5.23
2019-03-19T21:23:48.245Z,5.00
2019-03-19T21:26:19.285Z,5.47
2019-03-19T21:28:50.429Z,5.10
2019-03-19T21:31:21.543Z,5.20
2019-03-19T21:33:52.680Z,5.20
2019-03-19T21:36:23.963Z,4.70
2019-03-19T21:38:56.293Z,5.20
2019-03-19T21:41:27.369Z,5.73
2019-03-19T21:43:58.495Z,6.03
2019-03-19T21:46:29.622Z,4.60
2019-03-19T21:49:02.172Z,5.23
2019-03-19T21:51:33.283Z,5.40
2019-03-19T21:54:04.439Z,5.27
2019-03-19T21:56:35.583Z,5.47
2019-03-19T21:59:06.817Z,5.73
2019-03-19T22:01:37.923Z,4.83
2019-03-19T22:04:09.177Z,4.60
2019-03-19T22:06:41.387Z,4.73
2019-03-19T22:09:12.515Z,5.03
2019-03-19T22:11:43.671Z,4.53
2019-03-19T22:14:14.799Z,5.10
2019-03-19T22:16:45.858Z,4.50
2019-03-19T22:19:16.923Z,4.33
2019-03-19T22:21:48.068Z,4.70
2019-03-19T22:24:19.129Z,4.47
2019-03-19T22:26:50.155Z,4.40
2019-03-19T22:29:21.334Z,4.33
2019-03-19T22:31:52.441Z,4.83
2019-03-19T22:34:23.544Z,4.57
2019-03-19T22:36:54.807Z,4.03
2019-03-19T22:39:25.871Z,4.50
2019-03-19T22:41:56.920Z,4.50
2019-03-19T22:44:39.400Z,4.57
2019-03-19T22:47:10.453Z,4.90
2019-03-19T22:49:41.563Z,4.77
2019-03-19T22:52:12.759Z,4.37
2019-03-19T22:54:43.825Z,4.87
2019-03-19T22:57:14.889Z,4.50
2019-03-19T22:59:45.947Z,4.93
2019-03-19T23:02:17.058Z,4.77
2019-03-19T23:04:48.147Z,5.27
2019-03-19T23:07:19.196Z,5.13
2019-03-19T23:09:50.255Z,4.97
2019-03-19T23:12:23.077Z,4.43
2019-03-19T23:14:54.163Z,5.00
2019-03-19T23:17:25.199Z,4.90
2019-03-19T23:19:57.496Z,4.73
2019-03-19T23:22:28.958Z,4.60
2019-03-19T23:25:00.165Z,4.80
2019-03-19T23:27:31.785Z,4.80
2019-03-19T23:30:02.899Z,5.10
2019-03-19T23:32:34.414Z,5.37
2019-03-19T23:35:06.043Z,5.13
2019-03-19T23:37:37.545Z,5.10
2019-03-19T23:40:08.741Z,4.50
2019-03-19T23:42:40.039Z,5.90
2019-03-19T23:45:11.291Z,4.73
2019-03-19T23:47:42.433Z,4.80
2019-03-19T23:50:13.581Z,5.27
2019-03-19T23:52:56.764Z,5.47
2019-03-19T23:55:27.924Z,5.20
2019-03-19T23:57:59.252Z,5.07
